Data for 06/03/2007

Time Sea-Level Adjusted Pressure Absolute Pressure Temperature Relative Humidity Dew Point   
(mb) (inHg) (mb) (inHg) (C) (F) (%) (C) (F)
00:05 1020 30.12 849 25.07 14.6 58.2 62 7.3 45.2
00:10 1020 30.12 849 25.07 14.3 57.7 63 7.4 45.2
00:15 1020 30.12 849 25.07 13.9 57.1 64 7.3 45.1
00:20 1020 30.12 849 25.07 13.8 56.9 64 7.3 45.1
00:25 1020 30.12 849 25.07 13.8 56.8 64 7.1 44.8
00:30 1020 30.12 849 25.07 13.9 57 62 6.9 44.4
00:35 1020 30.12 849 25.07 14.2 57.5 61 6.9 44.4
00:40 1020 30.12 849 25.07 14.1 57.3 62 6.9 44.3
00:45 1020 30.12 849 25.07 14 57.2 62 6.9 44.4
00:50 1020 30.12 849 25.07 14 57.2 61 6.7 44.1
00:55 1020 30.12 849 25.07 14.3 57.7 59 6.5 43.7
01:00 1020 30.12 849 25.07 14.5 58.2 59 6.6 43.8
01:05 1020 30.12 849 25.07 14.5 58.1 60 6.8 44.2
01:10 1020 30.12 849 25.07 14.1 57.4 61 6.9 44.4
01:15 1020 30.12 849 25.07 13.8 56.9 63 6.9 44.5
01:20 1020 30.12 849 25.07 13.7 56.6 64 7 44.6
01:25 1020 30.12 849 25.07 13.5 56.2 65 7 44.6
01:30 1020 30.12 849 25.07 13.5 56.2 64 6.9 44.5
01:35 1020 30.12 849 25.07 13.4 56.1 65 6.9 44.4
01:40 1020 30.12 849 25.07 13.4 56.1 64 6.9 44.4
01:45 1020 30.12 849 25.07 13.2 55.8 64 6.7 44.1
01:50 1020 30.12 849 25.07 13.1 55.5 65 6.8 44.2
01:55 1020 30.12 849 25.07 13.2 55.7 63 6.4 43.6
02:00 1020 30.12 849 25.07 13.5 56.3 64 6.8 44.3
02:05 1020 30.12 849 25.07 13.6 56.4 65 7.2 45
02:10 1020 30.12 849 25.07 13.8 56.8 64 7.1 44.8
02:15 1020 30.12 849 25.07 13.9 56.9 64 7.2 44.9
02:20 1020 30.12 849 25.07 13.8 56.9 64 7.2 44.9
02:25 1020 30.12 849 25.07 13.6 56.4 65 7.1 44.7
02:30 1020 30.12 850 25.1 13.5 56.3 63 6.7 44.1
02:35 1020 30.12 850 25.1 13.2 55.7 66 6.9 44.5
02:40 1020 30.12 850 25.1 13.4 56 63 6.6 43.8
02:45 1020 30.12 850 25.1 13.4 56.1 63 6.6 43.8
02:50 1020 30.12 850 25.1 13 55.3 62 5.9 42.7
02:55 1020 30.12 850 25.1 12.8 55 62 5.6 42.2
03:00 1020 30.12 850 25.1 12.6 54.6 63 5.7 42.2
03:05 1020 30.12 850 25.1 12.7 54.9 63 5.9 42.6
03:10 1020 30.12 850 25.1 12.8 55.1 61 5.6 42.1
03:15 1021 30.15 850 25.1 12.8 55 63 6 42.7
03:20 1021 30.15 850 25.1 12.1 53.8 65 5.8 42.4
03:25 1020 30.12 850 25.1 11.6 53 65 5.4 41.7
03:30 1020 30.12 850 25.1 11.5 52.8 65 5.2 41.3
03:35 1020 30.12 850 25.1 11.5 52.8 64 5.1 41.2
03:40 1020 30.12 850 25.1 11.7 53 64 5.2 41.3
03:45 1020 30.12 850 25.1 11.8 53.3 64 5.3 41.6
03:50 1020 30.12 850 25.1 11.8 53.2 64 5.2 41.4
03:55 1020 30.12 850 25.1 11.9 53.4 63 5.1 41.2
04:00 1020 30.12 850 25.1 12.2 53.9 63 5.4 41.7
04:05 1021 30.15 850 25.1 11.9 53.5 65 5.6 42.1
04:10 1021 30.15 850 25.1 11.8 53.2 66 5.6 42.1
04:15 1021 30.15 850 25.1 11.8 53.2 66 5.7 42.2
04:20 1021 30.15 850 25.1 11.7 53 67 5.8 42.5
04:25 1021 30.15 850 25.1 11.2 52.2 67 5.3 41.6
04:30 1021 30.15 850 25.1 11.7 53 63 4.9 40.9
04:35 1021 30.15 850 25.1 11.9 53.3 64 5.3 41.5
04:40 1021 30.15 850 25.1 12.1 53.7 63 5.2 41.4
04:45 1021 30.15 850 25.1 12.4 54.3 62 5.4 41.7
04:50 1021 30.15 850 25.1 12.5 54.6 64 5.9 42.6
04:55 1021 30.15 850 25.1 12.5 54.4 66 6.3 43.3
05:00 1021 30.15 850 25.1 12.1 53.8 67 6.2 43.2
05:05 1021 30.15 850 25.1 11.8 53.3 69 6.4 43.5
05:10 1021 30.15 850 25.1 11.6 52.9 69 6.1 43.1
05:15 1021 30.15 850 25.1 11.2 52.1 70 6 42.9
05:20 1021 30.15 850 25.1 11 51.9 69 5.6 42.1
05:25 1021 30.15 850 25.1 11.2 52.1 68 5.5 41.9
05:30 1021 30.15 850 25.1 11.3 52.3 67 5.4 41.7
05:35 1021 30.15 850 25.1 11.4 52.5 66 5.4 41.7
05:40 1021 30.15 850 25.1 11 51.8 67 5.1 41.2
05:45 1021 30.15 850 25.1 11.2 52.1 67 5.3 41.5
05:50 1021 30.15 850 25.1 11.5 52.7 67 5.6 42
05:55 1021 30.15 850 25.1 11.3 52.3 67 5.4 41.8
06:00 1021 30.15 850 25.1 11.2 52.1 68 5.4 41.8
06:05 1021 30.15 850 25.1 11 51.7 70 5.7 42.3
06:10 1021 30.15 850 25.1 10.9 51.6 70 5.7 42.3
06:15 1021 30.15 850 25.1 10.9 51.7 70 5.7 42.2
06:20 1021 30.15 850 25.1 11 51.8 70 5.8 42.4
06:25 1021 30.15 850 25.1 11.1 51.9 70 5.8 42.5
06:30 1021 30.15 850 25.1 11.1 52 69 5.7 42.2
06:35 1021 30.15 850 25.1 11.1 52 69 5.7 42.3
06:40 1021 30.15 850 25.1 11.3 52.3 69 5.9 42.5
06:45 1021 30.15 850 25.1 11.5 52.6 69 6.1 42.9
06:50 1021 30.15 850 25.1 11.7 53 68 6 42.9
06:55 1021 30.15 850 25.1 11.9 53.4 67 5.9 42.6
07:00 1021 30.15 850 25.1 12.3 54.1 67 6.3 43.3
07:05 1021 30.15 850 25.1 12.5 54.5 67 6.7 44
07:10 1021 30.15 850 25.1 12.9 55.3 66 6.7 44.1
07:15 1021 30.15 850 25.1 13.2 55.7 65 6.8 44.3
07:20 1021 30.15 850 25.1 13 55.3 65 6.6 43.8
07:25 1021 30.15 850 25.1 13 55.4 64 6.4 43.4
07:30 1021 30.15 850 25.1 13.3 56 62 6.3 43.3
07:35 1021 30.15 850 25.1 13.6 56.5 60 6.1 43
07:40 1021 30.15 850 25.1 13.9 57.1 58 6 42.8
07:45 1021 30.15 850 25.1 14.4 57.8 57 6.1 43.1
07:50 1021 30.15 850 25.1 14.5 58.1 57 6.1 43
07:55 1021 30.15 851 25.13 14.8 58.7 57 6.4 43.5
08:00 1021 30.15 851 25.13 15 59 56 6.5 43.7
08:05 1021 30.15 851 25.13 15.8 60.5 53 6.4 43.6
08:10 1021 30.15 851 25.13 15.9 60.7 53 6.4 43.6
08:15 1021 30.15 851 25.13 15.9 60.6 53 6.5 43.7
08:20 1022 30.18 851 25.13 15.9 60.7 53 6.4 43.5
08:25 1022 30.18 851 25.13 16.1 61.1 53 6.5 43.7
08:30 1022 30.18 851 25.13 16.5 61.6 51 6.5 43.6
08:35 1022 30.18 851 25.13 16.7 62 52 6.8 44.3
08:40 1022 30.18 851 25.13 17 62.5 51 7 44.5
08:45 1022 30.18 851 25.13 16.9 62.5 52 7 44.6
08:50 1022 30.18 851 25.13 17 62.7 53 7.6 45.6
08:55 1022 30.18 851 25.13 16.9 62.4 53 7.4 45.3
09:00 1021 30.15 851 25.13 17.1 62.7 52 7.1 44.8
09:05 1021 30.15 851 25.13 17.8 64.1 48 6.7 44.1
09:10 1021 30.15 851 25.13 18.2 64.7 48 7.1 44.9
09:15 1021 30.15 851 25.13 18.1 64.6 46 6.5 43.7
09:20 1021 30.15 851 25.13 18.4 65.1 46 6.8 44.3
09:25 1021 30.15 851 25.13 18.4 65.1 47 6.9 44.5
09:30 1021 30.15 851 25.13 19 66.2 44 6.5 43.8
09:35 1021 30.15 851 25.13 19.1 66.4 46 7.3 45.1
09:40 1021 30.15 851 25.13 20 68 45 7.9 46.3
09:45 1021 30.15 851 25.13 20.4 68.7 44 7.8 46
09:50 1021 30.15 851 25.13 20.5 68.9 43 7.7 45.8
09:55 1021 30.15 851 25.13 20.4 68.6 46 8.7 47.6
10:00 1021 30.15 851 25.13 20.4 68.7 45 8.3 47
10:05 1021 30.15 851 25.13 20.5 68.9 46 8.7 47.6
10:10 1021 30.15 851 25.13 20.4 68.8 47 8.8 47.9
10:15 1021 30.15 850 25.1 19.7 67.4 48 8.4 47.2
10:20 1021 30.15 850 25.1 20.3 68.5 45 8.1 46.6
10:25 1021 30.15 850 25.1 21.1 70 43 8.1 46.6
10:30 1021 30.15 850 25.1 21.2 70.1 41 7.5 45.5
10:35 1021 30.15 851 25.13 21.4 70.5 39 7.2 44.9
10:40 1021 30.15 851 25.13 21.6 70.9 40 7.5 45.4
10:45 1021 30.15 851 25.13 21.3 70.4 41 7.6 45.7
10:50 1021 30.15 851 25.13 21.9 71.4 36 6.3 43.3
10:55 1021 30.15 851 25.13 22.2 72 35 6.3 43.3
11:00 1021 30.15 851 25.13 22.2 71.9 37 7 44.5
11:05 1021 30.15 851 25.13 22.1 71.8 39 7.7 45.8
11:10 1021 30.15 851 25.13 22.4 72.3 39 8 46.4
11:15 1021 30.15 850 25.1 22.4 72.4 37 7.3 45.2
11:20 1021 30.15 850 25.1 22.7 72.9 37 7.4 45.3
11:25 1021 30.15 850 25.1 23 73.4 38 8 46.3
11:30 1021 30.15 850 25.1 22.8 73.1 35 6.8 44.2
11:35 1021 30.15 850 25.1 22.7 72.8 35 6.6 43.8
11:40 1021 30.15 850 25.1 23.1 73.6 33 6.3 43.3
11:45 1021 30.15 850 25.1 22.9 73.3 37 7.7 45.9
11:50 1021 30.15 850 25.1 22.8 73.1 35 7 44.5
11:55 1021 30.15 850 25.1 23.1 73.5 34 6.8 44.2
12:00 1021 30.15 850 25.1 23.3 73.9 38 8.3 46.9
12:05 1021 30.15 850 25.1 23.5 74.2 38 8.4 47.2
12:10 1021 30.15 850 25.1 23.7 74.6 35 7.6 45.6
12:15 1021 30.15 850 25.1 23.8 74.8 37 8.3 47
12:20 1021 30.15 850 25.1 24.1 75.3 37 8.6 47.4
12:25 1021 30.15 850 25.1 23.9 74.9 36 8.2 46.7
12:30 1021 30.15 850 25.1 23.9 75 37 8.6 47.5
12:35 1021 30.15 850 25.1 24 75.1 35 7.8 46.1
12:40 1021 30.15 850 25.1 23.9 75 36 8 46.3
12:45 1021 30.15 850 25.1 24.3 75.8 33 7.4 45.3
12:50 1021 30.15 850 25.1 24.1 75.3 35 7.7 45.8
12:55 1021 30.15 850 25.1 24.5 76.1 33 7.3 45.1
13:00 1021 30.15 850 25.1 24.9 76.8 31 7 44.7
13:05 1021 30.15 850 25.1 25.3 77.6 32 7.5 45.5
13:10 1021 30.15 850 25.1 25.2 77.4 31 7.2 44.9
13:15 1021 30.15 850 25.1 24.1 75.5 34 7.4 45.4
13:20 1021 30.15 850 25.1 25.1 77.2 31 7 44.6
13:25 1021 30.15 850 25.1 25.7 78.2 30 6.9 44.4
13:30 1021 30.15 850 25.1 26 78.7 28 6.5 43.6
13:35 1020 30.12 850 25.1 26 78.8 29 6.9 44.5
13:40 1020 30.12 850 25.1 26.1 79 28 6.4 43.5
13:45 1020 30.12 850 25.1 26 78.7 28 6.4 43.5
13:50 1020 30.12 850 25.1 25.9 78.7 27 5.7 42.3
13:55 1020 30.12 850 25.1 26.2 79.1 26 5.5 42
14:00 1020 30.12 850 25.1 26.4 79.6 26 5.6 42.1
14:05 1020 30.12 850 25.1 26.7 80 23 4.3 39.7
14:10 1020 30.12 849 25.07 26.7 80 26 5.8 42.4
14:15 1020 30.12 850 25.1 25.2 77.4 30 6.6 43.8
14:20 1020 30.12 850 25.1 24.6 76.4 28 5.4 41.6
14:25 1020 30.12 850 25.1 24.7 76.5 30 6.3 43.3
14:30 1020 30.12 850 25.1 24.9 76.8 32 7.4 45.3
14:35 1020 30.12 850 25.1 25.1 77.3 31 7 44.6
14:40 1020 30.12 849 25.07 24.4 75.8 34 7.6 45.6
14:45 1020 30.12 849 25.07 24.2 75.5 31 6.1 43
14:50 1020 30.12 849 25.07 24.3 75.7 29 5.4 41.8
14:55 1020 30.12 849 25.07 24.8 76.6 31 6.9 44.5
15:00 1020 30.12 849 25.07 24.9 76.8 31 7.1 44.7
15:05 1020 30.12 849 25.07 23.9 74.9 33 6.7 44.1
15:10 1020 30.12 849 25.07 23.8 74.8 34 7 44.7
15:15 1020 30.12 849 25.07 23.7 74.7 33 6.9 44.4
15:20 1020 30.12 849 25.07 23.5 74.3 31 5.6 42
15:25 1020 30.12 849 25.07 24 75.2 30 5.5 41.9
15:30 1020 30.12 849 25.07 24.2 75.5 30 5.9 42.7
15:35 1020 30.12 849 25.07 23.4 74.1 31 5.7 42.2
15:40 1020 30.12 849 25.07 23.9 75 29 5 41
15:45 1020 30.12 849 25.07 23.7 74.7 29 4.9 40.8
15:50 1020 30.12 849 25.07 23.3 73.9 28 3.7 38.7
15:55 1020 30.12 849 25.07 23.8 74.8 28 4.2 39.6
16:00 1020 30.12 849 25.07 24.1 75.3 30 5.6 42.1
16:05 1020 30.12 849 25.07 24.4 75.9 30 6.1 43.1
16:10 1020 30.12 849 25.07 24.1 75.5 32 6.6 43.9
16:15 1020 30.12 849 25.07 24.4 75.9 31 6.5 43.7
16:20 1020 30.12 849 25.07 24.5 76 30 5.8 42.4
16:25 1020 30.12 849 25.07 24.2 75.5 29 5.1 41.1
16:30 1020 30.12 849 25.07 24.1 75.4 32 6.7 44.1
16:35 1020 30.12 849 25.07 24.3 75.7 33 7.2 45
16:40 1020 30.12 849 25.07 24.6 76.3 34 7.8 46
16:45 1019 30.09 849 25.07 24.5 76.2 33 7.4 45.3
16:50 1019 30.09 849 25.07 24.4 76 33 7.5 45.4
16:55 1019 30.09 849 25.07 24.4 75.9 34 7.7 45.8
17:00 1019 30.09 849 25.07 24.2 75.6 31 6.2 43.1
17:05 1019 30.09 848 25.04 24.5 76.1 31 6.4 43.6
17:10 1019 30.09 848 25.04 24.8 76.6 30 6 42.9
17:15 1019 30.09 848 25.04 24.8 76.6 33 7.6 45.7
17:20 1019 30.09 848 25.04 24.5 76.1 33 7.5 45.5
17:25 1019 30.09 848 25.04 24.4 76 29 5.5 41.9
17:30 1019 30.09 848 25.04 24.4 75.9 32 6.8 44.3
17:35 1019 30.09 848 25.04 24.1 75.4 35 7.8 46.1
17:40 1019 30.09 848 25.04 23.9 74.9 34 7.1 44.8
17:45 1019 30.09 848 25.04 23.9 75 36 8 46.4
17:50 1019 30.09 848 25.04 24 75.1 37 8.4 47.1
17:55 1019 30.09 848 25.04 23.9 75 36 8 46.4
18:00 1019 30.09 848 25.04 23.7 74.7 36 7.8 46.1
18:05 1019 30.09 848 25.04 23.4 74.1 37 7.9 46.3
18:10 1019 30.09 848 25.04 23.4 74.2 35 7.4 45.3
18:15 1019 30.09 848 25.04 23.6 74.4 36 8 46.4
18:20 1019 30.09 848 25.04 23.7 74.6 34 7.2 44.9
18:25 1019 30.09 848 25.04 23.6 74.5 35 7.5 45.5
18:30 1019 30.09 848 25.04 23.7 74.6 36 7.9 46.2
18:35 1019 30.09 848 25.04 23.6 74.5 35 7.7 45.8
18:40 1019 30.09 848 25.04 23.5 74.4 35 7.3 45.2
18:45 1019 30.09 848 25.04 23.2 73.7 33 6.4 43.5
18:50 1019 30.09 848 25.04 23 73.4 33 6 42.8
18:55 1019 30.09 848 25.04 22.8 73.1 31 5.1 41.1
19:00 1019 30.09 848 25.04 22.8 73 30 4.7 40.5
19:05 1019 30.09 848 25.04 22.7 72.9 30 4.7 40.4
19:10 1019 30.09 848 25.04 22.8 73 30 4.7 40.4
19:15 1019 30.09 848 25.04 22.9 73.1 30 4.8 40.7
19:20 1019 30.09 848 25.04 22.7 72.8 31 5.1 41.2
19:25 1019 30.09 849 25.07 22.4 72.3 32 5.3 41.5
19:30 1019 30.09 849 25.07 22.3 72.2 32 5 41
19:35 1019 30.09 849 25.07 22.2 72 32 5 40.9
19:40 1019 30.09 849 25.07 22.1 71.9 32 4.6 40.4
19:45 1019 30.09 849 25.07 22.1 71.8 31 4.4 39.8
19:50 1019 30.09 849 25.07 22 71.7 31 4.2 39.6
19:55 1019 30.09 849 25.07 21.9 71.3 32 4.5 40.1
20:00 1019 30.09 849 25.07 21.6 70.9 32 4.5 40.2
20:05 1019 30.09 849 25.07 21.4 70.4 32 4.2 39.6
20:10 1019 30.09 849 25.07 21.2 70.1 32 4 39.2
20:15 1020 30.12 849 25.07 21.1 69.9 33 4.4 40
20:20 1019 30.09 849 25.07 20.9 69.6 34 4.7 40.5
20:25 1020 30.12 849 25.07 20.7 69.3 35 4.9 40.9
20:30 1020 30.12 849 25.07 20.6 69.2 35 4.9 40.9
20:35 1020 30.12 849 25.07 20.6 69 35 4.7 40.4
20:40 1020 30.12 849 25.07 20.5 68.9 35 4.6 40.2
20:45 1020 30.12 849 25.07 20.5 68.9 35 4.6 40.2
20:50 1020 30.12 849 25.07 20.4 68.7 35 4.8 40.6
20:55 1020 30.12 849 25.07 20.3 68.6 36 4.9 40.8
21:00 1020 30.12 849 25.07 20.2 68.3 37 5.4 41.6
21:05 1020 30.12 849 25.07 20 68 38 5.5 41.8
21:10 1020 30.12 849 25.07 19.9 67.8 39 5.7 42.2
21:15 1020 30.12 849 25.07 19.7 67.5 39 5.6 42.1
21:20 1020 30.12 849 25.07 19.7 67.4 40 5.8 42.5
21:25 1020 30.12 849 25.07 19.5 67.1 41 5.9 42.7
21:30 1020 30.12 849 25.07 19.4 66.8 42 6.3 43.3
21:35 1020 30.12 849 25.07 19.3 66.7 42 6.1 43
21:40 1020 30.12 849 25.07 19.2 66.6 42 6.3 43.3
21:45 1020 30.12 849 25.07 19.2 66.5 43 6.5 43.7
21:50 1020 30.12 849 25.07 19 66.2 45 6.8 44.2
21:55 1020 30.12 849 25.07 18.8 65.8 46 7 44.5
22:00 1020 30.12 849 25.07 18.4 65.1 48 7.2 45
22:05 1020 30.12 849 25.07 18.2 64.7 49 7.3 45.2
22:10 1020 30.12 850 25.1 18 64.3 50 7.4 45.3
22:15 1020 30.12 849 25.07 17.7 63.9 51 7.6 45.7
22:20 1020 30.12 850 25.1 17.5 63.5 52 7.5 45.5
22:25 1020 30.12 850 25.1 17.3 63.1 52 7.3 45.2
22:30 1020 30.12 849 25.07 17.2 63 51 7 44.7
22:35 1020 30.12 849 25.07 17.3 63.1 52 7.3 45.2
22:40 1020 30.12 849 25.07 16.9 62.4 53 7.3 45.1
22:45 1020 30.12 850 25.1 16.9 62.3 52 7.2 44.9
22:50 1020 30.12 850 25.1 16.8 62.2 53 7.3 45.2
22:55 1020 30.12 850 25.1 16.4 61.5 55 7.4 45.3
23:00 1020 30.12 850 25.1 16.2 61.1 55 7.3 45.2
23:05 1020 30.12 850 25.1 16.1 61.1 55 7.2 45
23:10 1020 30.12 850 25.1 16.3 61.3 55 7.4 45.3
23:15 1020 30.12 850 25.1 16.6 61.9 55 7.6 45.7
23:20 1020 30.12 850 25.1 16.7 62 54 7.5 45.5
23:25 1020 30.12 850 25.1 16.4 61.6 55 7.5 45.4
23:30 1021 30.15 850 25.1 16.2 61.1 56 7.4 45.4
23:35 1021 30.15 850 25.1 15.8 60.4 58 7.5 45.6
23:40 1020 30.12 850 25.1 15.5 59.9 58 7.5 45.5
23:45 1020 30.12 850 25.1 15.3 59.5 59 7.4 45.4
23:50 1021 30.15 850 25.1 15.1 59.2 60 7.5 45.5
23:55 1021 30.15 850 25.1 15.2 59.4 60 7.5 45.4
24:00 1021 30.15 850 25.1 15.4 59.8 59 7.6 45.6